sensor_id;sensor_type;location;lat;lon;timestamp;P1;durP1;ratioP1;P2;durP2;ratioP2
33459;SDS011;19795;53.160;6.612;2023-06-01T05:14:35;495.05;;;459.60;;
33459;SDS011;19795;53.160;6.612;2023-06-01T05:19:35;485.88;;;454.63;;
33459;SDS011;19795;53.160;6.612;2023-06-01T05:22:01;325.75;;;305.67;;
33459;SDS011;19795;53.160;6.612;2023-06-01T05:24:27;364.50;;;343.10;;
33459;SDS011;19795;53.160;6.612;2023-06-01T05:26:53;532.28;;;493.58;;
33459;SDS011;19795;53.160;6.612;2023-06-01T05:29:18;273.15;;;256.52;;
33459;SDS011;19795;53.160;6.612;2023-06-01T05:31:45;437.13;;;409.95;;
33459;SDS011;19795;53.160;6.612;2023-06-01T05:34:11;254.13;;;238.82;;
33459;SDS011;19795;53.160;6.612;2023-06-01T05:36:38;281.40;;;264.40;;
33459;SDS011;19795;53.160;6.612;2023-06-01T05:39:04;235.50;;;219.68;;
33459;SDS011;19795;53.160;6.612;2023-06-01T05:41:29;544.17;;;507.52;;
33459;SDS011;19795;53.160;6.612;2023-06-01T05:43:55;548.13;;;512.33;;
33459;SDS011;19795;53.160;6.612;2023-06-01T05:46:21;460.50;;;431.25;;
33459;SDS011;19795;53.160;6.612;2023-06-01T05:48:46;328.73;;;304.10;;
33459;SDS011;19795;53.160;6.612;2023-06-01T05:51:12;210.93;;;197.93;;
33459;SDS011;19795;53.160;6.612;2023-06-01T05:53:38;178.40;;;167.80;;
33459;SDS011;19795;53.160;6.612;2023-06-01T05:56:03;384.20;;;360.90;;
33459;SDS011;19795;53.160;6.612;2023-06-01T05:58:29;361.23;;;339.20;;
33459;SDS011;19795;53.160;6.612;2023-06-01T06:00:55;284.40;;;264.75;;
33459;SDS011;19795;53.160;6.612;2023-06-01T06:03:21;350.27;;;328.02;;
33459;SDS011;19795;53.160;6.612;2023-06-01T06:05:47;253.75;;;238.10;;
33459;SDS011;19795;53.160;6.612;2023-06-01T06:08:14;390.73;;;364.48;;
33459;SDS011;19795;53.160;6.612;2023-06-01T06:10:39;495.73;;;446.45;;
33459;SDS011;19795;53.160;6.612;2023-06-01T06:13:06;265.92;;;249.45;;
33459;SDS011;19795;53.160;6.612;2023-06-01T06:15:32;464.40;;;433.83;;
33459;SDS011;19795;53.160;6.612;2023-06-01T06:18:00;200.38;;;188.27;;
33459;SDS011;19795;53.160;6.612;2023-06-01T06:20:25;226.57;;;212.55;;
33459;SDS011;19795;53.160;6.612;2023-06-01T06:22:51;266.50;;;249.88;;
33459;SDS011;19795;53.160;6.612;2023-06-01T06:25:19;375.17;;;348.67;;
33459;SDS011;19795;53.160;6.612;2023-06-01T06:27:45;194.85;;;183.70;;
33459;SDS011;19795;53.160;6.612;2023-06-01T06:30:12;427.63;;;396.02;;
33459;SDS011;19795;53.160;6.612;2023-06-01T06:32:38;363.60;;;339.08;;
33459;SDS011;19795;53.160;6.612;2023-06-01T06:35:04;336.10;;;313.27;;
33459;SDS011;19795;53.160;6.612;2023-06-01T06:37:29;247.85;;;231.45;;
33459;SDS011;19795;53.160;6.612;2023-06-01T06:39:55;247.18;;;232.27;;
33459;SDS011;19795;53.160;6.612;2023-06-01T06:42:21;429.20;;;397.33;;
33459;SDS011;19795;53.160;6.612;2023-06-01T06:44:48;341.15;;;316.67;;
33459;SDS011;19795;53.160;6.612;2023-06-01T06:47:13;292.02;;;274.38;;
33459;SDS011;19795;53.160;6.612;2023-06-01T06:49:43;379.17;;;349.73;;
33459;SDS011;19795;53.160;6.612;2023-06-01T06:52:09;274.80;;;257.17;;
33459;SDS011;19795;53.160;6.612;2023-06-01T06:54:35;398.10;;;369.95;;
33459;SDS011;19795;53.160;6.612;2023-06-01T06:57:03;454.33;;;415.55;;
33459;SDS011;19795;53.160;6.612;2023-06-01T06:59:29;253.07;;;236.35;;
33459;SDS011;19795;53.160;6.612;2023-06-01T07:01:55;246.07;;;230.77;;
33459;SDS011;19795;53.160;6.612;2023-06-01T07:04:21;228.85;;;214.85;;
33459;SDS011;19795;53.160;6.612;2023-06-01T07:06:47;286.92;;;267.88;;
33459;SDS011;19795;53.160;6.612;2023-06-01T07:09:12;373.13;;;347.63;;
33459;SDS011;19795;53.160;6.612;2023-06-01T07:11:39;326.10;;;305.38;;
33459;SDS011;19795;53.160;6.612;2023-06-01T07:14:07;292.90;;;273.40;;
33459;SDS011;19795;53.160;6.612;2023-06-01T07:16:33;568.08;;;522.20;;
33459;SDS011;19795;53.160;6.612;2023-06-01T07:18:59;396.52;;;367.77;;
33459;SDS011;19795;53.160;6.612;2023-06-01T07:21:25;237.15;;;222.18;;
33459;SDS011;19795;53.160;6.612;2023-06-01T07:23:51;374.48;;;346.45;;
33459;SDS011;19795;53.160;6.612;2023-06-01T07:26:16;412.02;;;382.00;;
33459;SDS011;19795;53.160;6.612;2023-06-01T07:28:42;286.52;;;267.80;;
33459;SDS011;19795;53.160;6.612;2023-06-01T07:31:08;546.22;;;501.10;;
33459;SDS011;19795;53.160;6.612;2023-06-01T07:33:34;394.05;;;366.35;;
33459;SDS011;19795;53.160;6.612;2023-06-01T07:36:01;429.40;;;400.63;;
33459;SDS011;19795;53.160;6.612;2023-06-01T07:38:28;308.92;;;288.52;;
33459;SDS011;19795;53.160;6.612;2023-06-01T07:40:55;1235.05;;;710.25;;
33459;SDS011;19795;53.160;6.612;2023-06-01T07:43:20;185.48;;;174.10;;
33459;SDS011;19795;53.160;6.612;2023-06-01T07:45:46;395.77;;;355.05;;
33459;SDS011;19795;53.160;6.612;2023-06-01T07:48:11;444.48;;;400.88;;
33459;SDS011;19795;53.160;6.612;2023-06-01T07:50:37;299.85;;;280.38;;
33459;SDS011;19795;53.160;6.612;2023-06-01T07:53:03;334.27;;;305.88;;
33459;SDS011;19795;53.160;6.612;2023-06-01T07:55:29;359.42;;;335.73;;
33459;SDS011;19795;53.160;6.612;2023-06-01T07:57:54;307.38;;;286.50;;
33459;SDS011;19795;53.160;6.612;2023-06-01T08:00:20;152.75;;;143.45;;
33459;SDS011;19795;53.160;6.612;2023-06-01T08:02:47;185.98;;;174.65;;
33459;SDS011;19795;53.160;6.612;2023-06-01T08:05:13;355.38;;;329.13;;
33459;SDS011;19795;53.160;6.612;2023-06-01T08:07:43;441.50;;;411.02;;
33459;SDS011;19795;53.160;6.612;2023-06-01T08:10:11;559.88;;;520.67;;
33459;SDS011;19795;53.160;6.612;2023-06-01T08:12:38;352.23;;;330.77;;
33459;SDS011;19795;53.160;6.612;2023-06-01T08:15:04;262.23;;;244.55;;
33459;SDS011;19795;53.160;6.612;2023-06-01T08:17:30;326.77;;;304.20;;
33459;SDS011;19795;53.160;6.612;2023-06-01T08:19:56;474.13;;;439.90;;
33459;SDS011;19795;53.160;6.612;2023-06-01T08:22:22;317.63;;;297.15;;
33459;SDS011;19795;53.160;6.612;2023-06-01T08:24:49;264.77;;;245.90;;
33459;SDS011;19795;53.160;6.612;2023-06-01T08:27:17;1157.03;;;647.20;;
33459;SDS011;19795;53.160;6.612;2023-06-01T08:29:46;217.00;;;203.15;;
33459;SDS011;19795;53.160;6.612;2023-06-01T08:32:13;331.02;;;309.80;;
33459;SDS011;19795;53.160;6.612;2023-06-01T08:34:40;482.48;;;446.65;;
33459;SDS011;19795;53.160;6.612;2023-06-01T08:37:06;401.75;;;370.67;;
33459;SDS011;19795;53.160;6.612;2023-06-01T08:39:31;544.28;;;500.15;;
33459;SDS011;19795;53.160;6.612;2023-06-01T08:44:36;199.27;;;184.93;;
33459;SDS011;19795;53.160;6.612;2023-06-01T08:47:04;392.75;;;366.52;;
33459;SDS011;19795;53.160;6.612;2023-06-01T08:49:30;375.90;;;346.70;;
33459;SDS011;19795;53.160;6.612;2023-06-01T08:51:57;379.13;;;355.08;;
33459;SDS011;19795;53.160;6.612;2023-06-01T08:54:27;284.70;;;265.80;;
33459;SDS011;19795;53.160;6.612;2023-06-01T08:56:57;399.52;;;374.13;;
33459;SDS011;19795;53.160;6.612;2023-06-01T08:59:27;358.05;;;334.85;;
33459;SDS011;19795;53.160;6.612;2023-06-01T09:01:54;256.42;;;238.48;;
33459;SDS011;19795;53.160;6.612;2023-06-01T09:04:20;891.72;;;608.13;;
33459;SDS011;19795;53.160;6.612;2023-06-01T09:06:45;321.00;;;299.83;;
33459;SDS011;19795;53.160;6.612;2023-06-01T09:09:11;272.52;;;255.40;;
33459;SDS011;19795;53.160;6.612;2023-06-01T09:11:38;371.05;;;343.60;;
33459;SDS011;19795;53.160;6.612;2023-06-01T09:14:20;366.90;;;343.92;;
33459;SDS011;19795;53.160;6.612;2023-06-01T09:16:51;426.15;;;399.45;;
33459;SDS011;19795;53.160;6.612;2023-06-01T09:19:17;432.42;;;406.85;;
33459;SDS011;19795;53.160;6.612;2023-06-01T09:21:58;404.27;;;374.75;;
33459;SDS011;19795;53.160;6.612;2023-06-01T09:24:25;1579.03;;;820.38;;
33459;SDS011;19795;53.160;6.612;2023-06-01T09:26:51;1597.07;;;837.38;;
33459;SDS011;19795;53.160;6.612;2023-06-01T09:29:24;216.20;;;203.50;;
33459;SDS011;19795;53.160;6.612;2023-06-01T09:31:51;355.55;;;334.90;;
33459;SDS011;19795;53.160;6.612;2023-06-01T09:34:18;401.27;;;375.83;;
33459;SDS011;19795;53.160;6.612;2023-06-01T09:36:48;386.83;;;360.33;;
33459;SDS011;19795;53.160;6.612;2023-06-01T09:39:19;723.58;;;453.33;;
33459;SDS011;19795;53.160;6.612;2023-06-01T09:41:49;558.60;;;516.13;;
33459;SDS011;19795;53.160;6.612;2023-06-01T09:46:52;223.38;;;201.65;;
33459;SDS011;19795;53.160;6.612;2023-06-01T09:49:25;345.85;;;317.10;;
33459;SDS011;19795;53.160;6.612;2023-06-01T09:54:49;417.48;;;390.45;;
33459;SDS011;19795;53.160;6.612;2023-06-01T09:57:25;793.45;;;520.78;;
33459;SDS011;19795;53.160;6.612;2023-06-01T09:59:54;402.33;;;369.23;;
33459;SDS011;19795;53.160;6.612;2023-06-01T10:02:20;403.42;;;376.85;;
33459;SDS011;19795;53.160;6.612;2023-06-01T10:04:48;410.23;;;382.73;;
33459;SDS011;19795;53.160;6.612;2023-06-01T10:07:15;387.15;;;355.70;;
33459;SDS011;19795;53.160;6.612;2023-06-01T10:09:43;1165.03;;;652.08;;
33459;SDS011;19795;53.160;6.612;2023-06-01T10:12:12;479.70;;;438.60;;
33459;SDS011;19795;53.160;6.612;2023-06-01T10:14:38;411.98;;;385.30;;
33459;SDS011;19795;53.160;6.612;2023-06-01T10:17:04;405.33;;;382.23;;
33459;SDS011;19795;53.160;6.612;2023-06-01T10:19:30;392.98;;;367.13;;
33459;SDS011;19795;53.160;6.612;2023-06-01T10:21:58;429.60;;;395.77;;
33459;SDS011;19795;53.160;6.612;2023-06-01T10:24:25;450.65;;;423.85;;
33459;SDS011;19795;53.160;6.612;2023-06-01T10:26:56;492.40;;;460.98;;
33459;SDS011;19795;53.160;6.612;2023-06-01T10:29:22;436.20;;;409.05;;
33459;SDS011;19795;53.160;6.612;2023-06-01T10:31:49;496.60;;;456.23;;
33459;SDS011;19795;53.160;6.612;2023-06-01T10:34:16;299.60;;;275.70;;
33459;SDS011;19795;53.160;6.612;2023-06-01T10:37:09;375.90;;;338.73;;
33459;SDS011;19795;53.160;6.612;2023-06-01T10:39:39;433.95;;;401.30;;
33459;SDS011;19795;53.160;6.612;2023-06-01T10:54:54;441.33;;;410.15;;
33459;SDS011;19795;53.160;6.612;2023-06-01T10:57:40;370.02;;;342.75;;
33459;SDS011;19795;53.160;6.612;2023-06-01T11:05:32;559.38;;;506.38;;
33459;SDS011;19795;53.160;6.612;2023-06-01T11:08:05;368.60;;;336.02;;
33459;SDS011;19795;53.160;6.612;2023-06-01T11:16:36;551.97;;;383.73;;
33459;SDS011;19795;53.160;6.612;2023-06-01T11:18:53;434.85;;;403.35;;
33459;SDS011;19795;53.160;6.612;2023-06-01T11:21:26;675.10;;;627.28;;
33459;SDS011;19795;53.160;6.612;2023-06-01T11:23:54;520.25;;;482.27;;
33459;SDS011;19795;53.160;6.612;2023-06-01T11:26:22;402.13;;;373.45;;
33459;SDS011;19795;53.160;6.612;2023-06-01T11:29:03;493.45;;;457.33;;
33459;SDS011;19795;53.160;6.612;2023-06-01T11:31:49;1999.90;;;999.90;;
33459;SDS011;19795;53.160;6.612;2023-06-01T11:34:25;1050.80;;;533.13;;
33459;SDS011;19795;53.160;6.612;2023-06-01T11:36:59;1999.90;;;999.90;;
33459;SDS011;19795;53.160;6.612;2023-06-01T11:39:26;1999.90;;;999.90;;
33459;SDS011;19795;53.160;6.612;2023-06-01T11:44:37;683.05;;;357.67;;
33459;SDS011;19795;53.160;6.612;2023-06-01T11:47:05;1999.90;;;999.90;;
33459;SDS011;19795;53.160;6.612;2023-06-01T11:49:39;1045.38;;;523.05;;
33459;SDS011;19795;53.160;6.612;2023-06-01T11:52:08;1534.38;;;778.38;;
33459;SDS011;19795;53.160;6.612;2023-06-01T11:54:34;1522.10;;;763.75;;
33459;SDS011;19795;53.160;6.612;2023-06-01T11:57:01;271.02;;;195.18;;
33459;SDS011;19795;53.160;6.612;2023-06-01T11:59:36;1579.40;;;793.35;;
33459;SDS011;19795;53.160;6.612;2023-06-01T12:04:28;1999.90;;;999.90;;
33459;SDS011;19795;53.160;6.612;2023-06-01T12:07:04;1999.90;;;999.90;;
33459;SDS011;19795;53.160;6.612;2023-06-01T12:09:30;1999.90;;;999.90;;
33459;SDS011;19795;53.160;6.612;2023-06-01T12:11:57;1999.90;;;999.90;;
33459;SDS011;19795;53.160;6.612;2023-06-01T12:14:24;1999.90;;;999.90;;
33459;SDS011;19795;53.160;6.612;2023-06-01T12:16:53;1209.03;;;587.50;;
33459;SDS011;19795;53.160;6.612;2023-06-01T12:19:21;1999.90;;;999.90;;
33459;SDS011;19795;53.160;6.612;2023-06-01T12:21:50;1999.90;;;999.90;;
33459;SDS011;19795;53.160;6.612;2023-06-01T12:24:25;1999.90;;;999.90;;
33459;SDS011;19795;53.160;6.612;2023-06-01T12:26:55;1999.90;;;999.90;;
33459;SDS011;19795;53.160;6.612;2023-06-01T12:32:01;1999.90;;;999.90;;
33459;SDS011;19795;53.160;6.612;2023-06-01T12:34:28;1999.90;;;999.90;;
33459;SDS011;19795;53.160;6.612;2023-06-01T12:36:54;1999.90;;;999.90;;
33459;SDS011;19795;53.160;6.612;2023-06-01T12:39:31;1999.90;;;999.90;;
33459;SDS011;19795;53.160;6.612;2023-06-01T12:42:01;1999.90;;;999.90;;
33459;SDS011;19795;53.160;6.612;2023-06-01T12:44:30;1999.90;;;999.90;;
33459;SDS011;19795;53.160;6.612;2023-06-01T12:46:58;1999.90;;;999.90;;
33459;SDS011;19795;53.160;6.612;2023-06-01T12:49:24;1999.90;;;999.90;;
33459;SDS011;19795;53.160;6.612;2023-06-01T12:51:50;1999.90;;;999.90;;
33459;SDS011;19795;53.160;6.612;2023-06-01T12:54:16;1999.90;;;999.90;;
33459;SDS011;19795;53.160;6.612;2023-06-01T12:56:42;1999.90;;;999.90;;
33459;SDS011;19795;53.160;6.612;2023-06-01T12:59:08;1999.90;;;999.90;;
33459;SDS011;19795;53.160;6.612;2023-06-01T13:01:34;247.45;;;192.75;;
33459;SDS011;19795;53.160;6.612;2023-06-01T13:04:00;1078.28;;;561.05;;
33459;SDS011;19795;53.160;6.612;2023-06-01T13:06:28;112.40;;;71.25;;
33459;SDS011;19795;53.160;6.612;2023-06-01T13:08:54;1999.90;;;999.90;;
33459;SDS011;19795;53.160;6.612;2023-06-01T13:11:20;1999.90;;;999.90;;
33459;SDS011;19795;53.160;6.612;2023-06-01T13:13:48;192.93;;;106.93;;
33459;SDS011;19795;53.160;6.612;2023-06-01T13:16:14;328.33;;;305.60;;
33459;SDS011;19795;53.160;6.612;2023-06-01T13:18:40;381.20;;;356.58;;
33459;SDS011;19795;53.160;6.612;2023-06-01T13:21:06;1999.90;;;999.90;;
33459;SDS011;19795;53.160;6.612;2023-06-01T13:23:32;368.33;;;347.23;;
33459;SDS011;19795;53.160;6.612;2023-06-01T13:25:58;366.40;;;343.35;;
33459;SDS011;19795;53.160;6.612;2023-06-01T13:28:23;278.85;;;261.38;;
33459;SDS011;19795;53.160;6.612;2023-06-01T13:30:49;373.23;;;351.70;;
33459;SDS011;19795;53.160;6.612;2023-06-01T13:33:15;302.25;;;278.05;;
33459;SDS011;19795;53.160;6.612;2023-06-01T13:35:41;439.83;;;414.85;;
33459;SDS011;19795;53.160;6.612;2023-06-01T13:38:06;340.48;;;315.30;;
33459;SDS011;19795;53.160;6.612;2023-06-01T13:40:33;359.58;;;325.73;;
33459;SDS011;19795;53.160;6.612;2023-06-01T13:42:59;1999.90;;;999.90;;
33459;SDS011;19795;53.160;6.612;2023-06-01T13:45:25;1999.90;;;999.90;;
33459;SDS011;19795;53.160;6.612;2023-06-01T13:47:51;1999.90;;;999.90;;
33459;SDS011;19795;53.160;6.612;2023-06-01T13:50:20;1999.90;;;999.90;;
33459;SDS011;19795;53.160;6.612;2023-06-01T13:52:45;1508.13;;;757.22;;
33459;SDS011;19795;53.160;6.612;2023-06-01T13:55:11;1999.90;;;999.90;;
33459;SDS011;19795;53.160;6.612;2023-06-01T13:57:37;1999.90;;;999.90;;
33459;SDS011;19795;53.160;6.612;2023-06-01T14:00:05;1529.70;;;760.80;;
33459;SDS011;19795;53.160;6.612;2023-06-01T14:02:31;1561.63;;;778.28;;
33459;SDS011;19795;53.160;6.612;2023-06-01T14:04:57;1999.90;;;999.90;;
33459;SDS011;19795;53.160;6.612;2023-06-01T14:07:23;1999.90;;;999.90;;
33459;SDS011;19795;53.160;6.612;2023-06-01T14:09:48;1527.93;;;771.78;;
33459;SDS011;19795;53.160;6.612;2023-06-01T14:12:14;1039.32;;;514.33;;
33459;SDS011;19795;53.160;6.612;2023-06-01T14:14:40;1999.90;;;999.90;;
33459;SDS011;19795;53.160;6.612;2023-06-01T14:17:06;1999.90;;;999.90;;
33459;SDS011;19795;53.160;6.612;2023-06-01T14:19:31;188.02;;;159.90;;
33459;SDS011;19795;53.160;6.612;2023-06-01T14:21:57;1999.90;;;999.90;;
33459;SDS011;19795;53.160;6.612;2023-06-01T14:24:23;1999.90;;;999.90;;
33459;SDS011;19795;53.160;6.612;2023-06-01T14:26:48;1999.90;;;999.90;;
33459;SDS011;19795;53.160;6.612;2023-06-01T14:29:14;1528.82;;;775.97;;
33459;SDS011;19795;53.160;6.612;2023-06-01T14:31:40;1999.90;;;999.90;;
33459;SDS011;19795;53.160;6.612;2023-06-01T14:34:06;1999.90;;;999.90;;
33459;SDS011;19795;53.160;6.612;2023-06-01T14:36:32;228.50;;;205.10;;
33459;SDS011;19795;53.160;6.612;2023-06-01T14:38:58;1999.90;;;999.90;;
33459;SDS011;19795;53.160;6.612;2023-06-01T14:41:23;1999.90;;;999.90;;
33459;SDS011;19795;53.160;6.612;2023-06-01T14:43:50;1999.90;;;999.90;;
33459;SDS011;19795;53.160;6.612;2023-06-01T14:46:15;1999.90;;;999.90;;
33459;SDS011;19795;53.160;6.612;2023-06-01T14:48:41;1999.90;;;999.90;;
33459;SDS011;19795;53.160;6.612;2023-06-01T14:51:07;1999.90;;;999.90;;
33459;SDS011;19795;53.160;6.612;2023-06-01T14:53:33;1999.90;;;999.90;;
33459;SDS011;19795;53.160;6.612;2023-06-01T14:55:59;1999.90;;;999.90;;
33459;SDS011;19795;53.160;6.612;2023-06-01T14:58:25;1999.90;;;999.90;;
33459;SDS011;19795;53.160;6.612;2023-06-01T15:00:51;1999.90;;;999.90;;
33459;SDS011;19795;53.160;6.612;2023-06-01T15:03:17;1999.90;;;999.90;;
33459;SDS011;19795;53.160;6.612;2023-06-01T15:05:43;1999.90;;;999.90;;
33459;SDS011;19795;53.160;6.612;2023-06-01T15:08:09;1999.90;;;999.90;;
33459;SDS011;19795;53.160;6.612;2023-06-01T15:10:35;1999.90;;;999.90;;
33459;SDS011;19795;53.160;6.612;2023-06-01T15:13:01;1999.90;;;999.90;;
33459;SDS011;19795;53.160;6.612;2023-06-01T15:15:26;391.77;;;361.35;;
33459;SDS011;19795;53.160;6.612;2023-06-01T15:17:52;220.48;;;197.35;;
33459;SDS011;19795;53.160;6.612;2023-06-01T15:20:20;293.30;;;274.17;;
33459;SDS011;19795;53.160;6.612;2023-06-01T15:22:45;1048.35;;;543.63;;
33459;SDS011;19795;53.160;6.612;2023-06-01T15:25:11;1999.90;;;999.90;;
33459;SDS011;19795;53.160;6.612;2023-06-01T15:27:40;1536.00;;;781.92;;
33459;SDS011;19795;53.160;6.612;2023-06-01T15:30:11;1999.90;;;999.90;;
33459;SDS011;19795;53.160;6.612;2023-06-01T15:32:37;1999.90;;;999.90;;
33459;SDS011;19795;53.160;6.612;2023-06-01T15:35:03;1999.90;;;999.90;;
33459;SDS011;19795;53.160;6.612;2023-06-01T15:37:32;1999.90;;;999.90;;
33459;SDS011;19795;53.160;6.612;2023-06-01T15:40:00;1999.90;;;999.90;;
33459;SDS011;19795;53.160;6.612;2023-06-01T15:42:36;1999.90;;;999.90;;
33459;SDS011;19795;53.160;6.612;2023-06-01T15:45:07;1999.90;;;999.90;;
33459;SDS011;19795;53.160;6.612;2023-06-01T15:47:34;1999.90;;;999.90;;
33459;SDS011;19795;53.160;6.612;2023-06-01T15:50:01;1999.90;;;999.90;;
33459;SDS011;19795;53.160;6.612;2023-06-01T15:52:28;1999.90;;;999.90;;
33459;SDS011;19795;53.160;6.612;2023-06-01T15:54:55;1999.90;;;999.90;;
33459;SDS011;19795;53.160;6.612;2023-06-01T15:57:24;1999.90;;;999.90;;
33459;SDS011;19795;53.160;6.612;2023-06-01T15:59:49;1999.90;;;999.90;;
33459;SDS011;19795;53.160;6.612;2023-06-01T16:05:04;1999.90;;;999.90;;
33459;SDS011;19795;53.160;6.612;2023-06-01T16:07:31;1999.90;;;999.90;;
33459;SDS011;19795;53.160;6.612;2023-06-01T16:09:56;1999.90;;;999.90;;
33459;SDS011;19795;53.160;6.612;2023-06-01T16:12:23;1999.90;;;999.90;;
33459;SDS011;19795;53.160;6.612;2023-06-01T16:14:48;1999.90;;;999.90;;
33459;SDS011;19795;53.160;6.612;2023-06-01T16:17:17;1999.90;;;999.90;;
33459;SDS011;19795;53.160;6.612;2023-06-01T16:19:42;1999.90;;;999.90;;
33459;SDS011;19795;53.160;6.612;2023-06-01T16:22:08;1999.90;;;999.90;;
33459;SDS011;19795;53.160;6.612;2023-06-01T16:24:34;1999.90;;;999.90;;
33459;SDS011;19795;53.160;6.612;2023-06-01T16:27:02;1999.90;;;999.90;;
33459;SDS011;19795;53.160;6.612;2023-06-01T16:29:28;1999.90;;;999.90;;
33459;SDS011;19795;53.160;6.612;2023-06-01T16:31:55;1999.90;;;999.90;;
33459;SDS011;19795;53.160;6.612;2023-06-01T16:34:20;1999.90;;;999.90;;
33459;SDS011;19795;53.160;6.612;2023-06-01T16:36:46;1999.90;;;999.90;;
33459;SDS011;19795;53.160;6.612;2023-06-01T16:39:11;1999.90;;;999.90;;
33459;SDS011;19795;53.160;6.612;2023-06-01T16:41:38;1999.90;;;999.90;;
33459;SDS011;19795;53.160;6.612;2023-06-01T16:44:03;1999.90;;;999.90;;
33459;SDS011;19795;53.160;6.612;2023-06-01T16:46:29;1508.75;;;756.65;;
33459;SDS011;19795;53.160;6.612;2023-06-01T16:48:57;1999.90;;;999.90;;
33459;SDS011;19795;53.160;6.612;2023-06-01T16:51:23;1515.55;;;764.33;;
33459;SDS011;19795;53.160;6.612;2023-06-01T16:53:56;1999.90;;;999.90;;
33459;SDS011;19795;53.160;6.612;2023-06-01T16:56:24;1999.90;;;999.90;;
33459;SDS011;19795;53.160;6.612;2023-06-01T16:58:52;1999.90;;;999.90;;
33459;SDS011;19795;53.160;6.612;2023-06-01T17:01:18;1999.90;;;999.90;;
33459;SDS011;19795;53.160;6.612;2023-06-01T17:03:43;1999.90;;;999.90;;
33459;SDS011;19795;53.160;6.612;2023-06-01T17:06:09;1999.90;;;999.90;;
33459;SDS011;19795;53.160;6.612;2023-06-01T17:08:35;771.60;;;391.95;;
33459;SDS011;19795;53.160;6.612;2023-06-01T17:11:00;1999.90;;;999.90;;
33459;SDS011;19795;53.160;6.612;2023-06-01T17:13:26;1512.70;;;761.70;;
33459;SDS011;19795;53.160;6.612;2023-06-01T17:15:52;1999.90;;;999.90;;
33459;SDS011;19795;53.160;6.612;2023-06-01T17:18:17;1999.90;;;999.90;;
33459;SDS011;19795;53.160;6.612;2023-06-01T17:20:43;1999.90;;;999.90;;
33459;SDS011;19795;53.160;6.612;2023-06-01T17:23:08;1999.90;;;999.90;;
33459;SDS011;19795;53.160;6.612;2023-06-01T17:25:34;1999.90;;;999.90;;
33459;SDS011;19795;53.160;6.612;2023-06-01T17:28:00;1999.90;;;999.90;;
33459;SDS011;19795;53.160;6.612;2023-06-01T17:30:28;1999.90;;;999.90;;
33459;SDS011;19795;53.160;6.612;2023-06-01T17:32:55;1999.90;;;999.90;;
33459;SDS011;19795;53.160;6.612;2023-06-01T17:35:21;1999.90;;;999.90;;
33459;SDS011;19795;53.160;6.612;2023-06-01T17:37:46;1999.90;;;999.90;;
33459;SDS011;19795;53.160;6.612;2023-06-01T17:40:12;1999.90;;;999.90;;
33459;SDS011;19795;53.160;6.612;2023-06-01T17:42:38;1999.90;;;999.90;;
33459;SDS011;19795;53.160;6.612;2023-06-01T17:45:04;1999.90;;;999.90;;
33459;SDS011;19795;53.160;6.612;2023-06-01T17:47:30;1114.90;;;568.22;;
33459;SDS011;19795;53.160;6.612;2023-06-01T17:49:56;1999.90;;;999.90;;
33459;SDS011;19795;53.160;6.612;2023-06-01T17:52:21;1999.90;;;999.90;;
33459;SDS011;19795;53.160;6.612;2023-06-01T17:54:47;1999.90;;;999.90;;
33459;SDS011;19795;53.160;6.612;2023-06-01T17:57:13;1999.90;;;999.90;;
33459;SDS011;19795;53.160;6.612;2023-06-01T17:59:39;1999.90;;;999.90;;
33459;SDS011;19795;53.160;6.612;2023-06-01T18:02:06;1999.90;;;999.90;;
33459;SDS011;19795;53.160;6.612;2023-06-01T18:04:35;1999.90;;;999.90;;
33459;SDS011;19795;53.160;6.612;2023-06-01T18:07:01;1999.90;;;999.90;;
33459;SDS011;19795;53.160;6.612;2023-06-01T18:09:26;1999.90;;;999.90;;
33459;SDS011;19795;53.160;6.612;2023-06-01T18:11:52;1999.90;;;999.90;;
33459;SDS011;19795;53.160;6.612;2023-06-01T18:14:18;698.47;;;374.50;;
33459;SDS011;19795;53.160;6.612;2023-06-01T18:16:43;1999.90;;;999.90;;
33459;SDS011;19795;53.160;6.612;2023-06-01T18:19:09;1999.90;;;999.90;;
33459;SDS011;19795;53.160;6.612;2023-06-01T18:21:35;1999.90;;;999.90;;
33459;SDS011;19795;53.160;6.612;2023-06-01T18:24:02;1999.90;;;999.90;;
33459;SDS011;19795;53.160;6.612;2023-06-01T18:26:28;1532.38;;;767.03;;
33459;SDS011;19795;53.160;6.612;2023-06-01T18:28:53;1999.90;;;999.90;;
33459;SDS011;19795;53.160;6.612;2023-06-01T18:31:22;1999.90;;;999.90;;
33459;SDS011;19795;53.160;6.612;2023-06-01T18:33:51;1999.90;;;999.90;;
33459;SDS011;19795;53.160;6.612;2023-06-01T18:36:17;1999.90;;;999.90;;
33459;SDS011;19795;53.160;6.612;2023-06-01T18:38:42;114.78;;;101.95;;
33459;SDS011;19795;53.160;6.612;2023-06-01T18:41:10;1999.90;;;999.90;;
33459;SDS011;19795;53.160;6.612;2023-06-01T18:43:36;1999.90;;;999.90;;
33459;SDS011;19795;53.160;6.612;2023-06-01T18:46:02;1999.90;;;999.90;;
33459;SDS011;19795;53.160;6.612;2023-06-01T18:48:28;1999.90;;;999.90;;
33459;SDS011;19795;53.160;6.612;2023-06-01T18:50:53;1999.90;;;999.90;;
33459;SDS011;19795;53.160;6.612;2023-06-01T18:53:19;1999.90;;;999.90;;
33459;SDS011;19795;53.160;6.612;2023-06-01T18:55:45;1999.90;;;999.90;;
33459;SDS011;19795;53.160;6.612;2023-06-01T18:58:12;1999.90;;;999.90;;
33459;SDS011;19795;53.160;6.612;2023-06-01T19:00:39;1999.90;;;999.90;;
33459;SDS011;19795;53.160;6.612;2023-06-01T19:03:10;1999.90;;;999.90;;
33459;SDS011;19795;53.160;6.612;2023-06-01T19:05:37;1999.90;;;999.90;;
33459;SDS011;19795;53.160;6.612;2023-06-01T19:08:02;1999.90;;;999.90;;
33459;SDS011;19795;53.160;6.612;2023-06-01T19:10:54;1999.90;;;999.90;;
33459;SDS011;19795;53.160;6.612;2023-06-01T19:13:28;1999.90;;;999.90;;
33459;SDS011;19795;53.160;6.612;2023-06-01T19:16:17;1999.90;;;999.90;;
33459;SDS011;19795;53.160;6.612;2023-06-01T19:18:50;1999.90;;;999.90;;
33459;SDS011;19795;53.160;6.612;2023-06-01T19:21:17;1999.90;;;999.90;;
33459;SDS011;19795;53.160;6.612;2023-06-01T19:23:44;1999.90;;;999.90;;
33459;SDS011;19795;53.160;6.612;2023-06-01T19:26:11;1999.90;;;999.90;;
33459;SDS011;19795;53.160;6.612;2023-06-01T19:28:37;1999.90;;;999.90;;
33459;SDS011;19795;53.160;6.612;2023-06-01T19:31:04;1999.90;;;999.90;;
33459;SDS011;19795;53.160;6.612;2023-06-01T19:33:31;1999.90;;;999.90;;
33459;SDS011;19795;53.160;6.612;2023-06-01T19:36:00;1999.90;;;999.90;;
33459;SDS011;19795;53.160;6.612;2023-06-01T19:38:26;1999.90;;;999.90;;
33459;SDS011;19795;53.160;6.612;2023-06-01T19:40:51;1999.90;;;999.90;;
33459;SDS011;19795;53.160;6.612;2023-06-01T19:46:18;1999.90;;;999.90;;
33459;SDS011;19795;53.160;6.612;2023-06-01T19:48:46;1999.90;;;999.90;;
33459;SDS011;19795;53.160;6.612;2023-06-01T19:51:13;1999.90;;;999.90;;
33459;SDS011;19795;53.160;6.612;2023-06-01T19:53:44;1999.90;;;999.90;;